Station Historical Data
Daily Summary for May 21, 2017 Units:  Both    English   Metric
« Previous Day
Next Day »
Daily Weekly Monthly Yearly Custom
  High: Low: Average:
Temperature: 73.7 °F /  23.2 °C 54.6 °F /  12.6 °C 61.8 °F /  16.6 °C
Dew Point: 62.9 °F /  17.2 °C 40.9 °F /  4.9 °C 54.2 °F /  12.3 °C
Humidity: 90% 55% 76%
Wind Speed: 8.0mph /  12.9km/h - 2.4mph /  3.9km/h
Wind Gust: 18.0mph /  29km/h - -
Wind- - SE
Pressure: 30.20 in /  1022.6 hPa 29.94 in /  1013.8 hPa -
Precipitation: 0.31 in /  7.87 mm    
Historical Graphs
 
 
Tabular Data for May 21, 2017
Time Temperature Dew Point Pressure Wind Wind Speed Wind Gust Humidity Rainfall Rate (Hourly)
00:00 56.9 °F /  13.8 °C 40.9 °F /  4.9 °C 30.20in /  1022.6hPa ENE 4.0mph /  6.4km/h 11.0mph /  17.7km/h 55% 0.00in /  0mm
00:05 56.4 °F /  13.6 °C 41.3 °F /  5.2 °C 30.20in /  1022.6hPa East 6.0mph /  9.7km/h 8.0mph /  12.9km/h 57% 0.00in /  0mm
00:10 56.3 °F /  13.5 °C 41.7 °F /  5.4 °C 30.20in /  1022.6hPa East 3.0mph /  4.8km/h 9.0mph /  14.5km/h 58% 0.00in /  0mm
00:15 56.1 °F /  13.4 °C 42.0 °F /  5.6 °C 30.20in /  1022.6hPa East 4.0mph /  6.4km/h 13.0mph /  20.9km/h 59% 0.00in /  0mm
00:20 56.0 °F /  13.3 °C 42.7 °F /  5.9 °C 30.19in /  1022.2hPa East 4.0mph /  6.4km/h 13.0mph /  20.9km/h 61% 0.00in /  0mm
00:25 56.1 °F /  13.4 °C 42.4 °F /  5.8 °C 30.19in /  1022.2hPa East 4.0mph /  6.4km/h 10.0mph /  16.1km/h 60% 0.00in /  0mm
00:30 56.2 °F /  13.4 °C 42.9 °F /  6.1 °C 30.19in /  1022.2hPa ESE 1.0mph /  1.6km/h 8.0mph /  12.9km/h 61% 0.00in /  0mm
00:35 56.2 °F /  13.4 °C 42.9 °F /  6.1 °C 30.19in /  1022.2hPa ENE 3.0mph /  4.8km/h 7.0mph /  11.3km/h 61% 0.00in /  0mm
00:40 56.2 °F /  13.4 °C 43.3 °F /  6.3 °C 30.19in /  1022.2hPa East 1.0mph /  1.6km/h 6.0mph /  9.7km/h 62% 0.00in /  0mm
00:45 56.3 °F /  13.5 °C 43.0 °F /  6.1 °C 30.19in /  1022.2hPa East 1.0mph /  1.6km/h 6.0mph /  9.7km/h 61% 0.00in /  0mm
00:50 56.3 °F /  13.5 °C 43.4 °F /  6.3 °C 30.19in /  1022.2hPa Calm   6.0mph /  9.7km/h 62% 0.00in /  0mm
00:55 56.4 °F /  13.6 °C 43.5 °F /  6.4 °C 30.20in /  1022.6hPa ENE 1.0mph /  1.6km/h 6.0mph /  9.7km/h 62% 0.00in /  0mm
01:00 56.3 °F /  13.5 °C 43.4 °F /  6.3 °C 30.20in /  1022.6hPa ESE 1.0mph /  1.6km/h 6.0mph /  9.7km/h 62% 0.00in /  0mm
01:05 56.3 °F /  13.5 °C 43.9 °F /  6.6 °C 30.19in /  1022.2hPa ENE 2.0mph /  3.2km/h 6.0mph /  9.7km/h 63% 0.00in /  0mm
01:10 56.3 °F /  13.5 °C 43.9 °F /  6.6 °C 30.19in /  1022.2hPa ENE 2.0mph /  3.2km/h 5.0mph /  8km/h 63% 0.00in /  0mm
01:15 56.2 °F /  13.4 °C 43.8 °F /  6.6 °C 30.19in /  1022.2hPa ENE 3.0mph /  4.8km/h 7.0mph /  11.3km/h 63% 0.00in /  0mm
01:20 56.2 °F /  13.4 °C 44.2 °F /  6.8 °C 30.18in /  1021.9hPa ENE 3.0mph /  4.8km/h 7.0mph /  11.3km/h 64% 0.00in /  0mm
01:25 56.2 °F /  13.4 °C 44.6 °F /  7 °C 30.18in /  1021.9hPa ENE 4.0mph /  6.4km/h 8.0mph /  12.9km/h 65% 0.00in /  0mm
01:30 56.0 °F /  13.3 °C 44.4 °F /  6.9 °C 30.18in /  1021.9hPa ENE 4.0mph /  6.4km/h 6.0mph /  9.7km/h 65% 0.00in /  0mm
01:35 56.0 °F /  13.3 °C 44.4 °F /  6.9 °C 30.18in /  1021.9hPa East 3.0mph /  4.8km/h 6.0mph /  9.7km/h 65% 0.00in /  0mm
01:40 55.9 °F /  13.3 °C 44.3 °F /  6.8 °C 30.18in /  1021.9hPa ESE 3.0mph /  4.8km/h 5.0mph /  8km/h 65% 0.00in /  0mm
01:45 55.8 °F /  13.2 °C 44.6 °F /  7 °C 30.18in /  1021.9hPa ESE 1.0mph /  1.6km/h 6.0mph /  9.7km/h 66% 0.00in /  0mm
01:50 55.9 °F /  13.3 °C 44.7 °F /  7.1 °C 30.18in /  1021.9hPa NE 2.0mph /  3.2km/h 5.0mph /  8km/h 66% 0.00in /  0mm
01:55 55.9 °F /  13.3 °C 44.7 °F /  7.1 °C 30.18in /  1021.9hPa Calm   5.0mph /  8km/h 66% 0.00in /  0mm
02:00 55.8 °F /  13.2 °C 44.6 °F /  7 °C 30.17in /  1021.6hPa East 3.0mph /  4.8km/h 4.0mph /  6.4km/h 66% 0.00in /  0mm
02:05 55.8 °F /  13.2 °C 44.6 °F /  7 °C 30.17in /  1021.6hPa East 2.0mph /  3.2km/h 5.0mph /  8km/h 66% 0.00in /  0mm
02:10 55.7 °F /  13.2 °C 44.5 °F /  6.9 °C 30.17in /  1021.6hPa ENE 2.0mph /  3.2km/h 6.0mph /  9.7km/h 66% 0.00in /  0mm
02:15 55.7 °F /  13.2 °C 44.9 °F /  7.2 °C 30.16in /  1021.2hPa ENE 3.0mph /  4.8km/h 7.0mph /  11.3km/h 67% 0.00in /  0mm
02:20 55.7 °F /  13.2 °C 44.9 °F /  7.2 °C 30.16in /  1021.2hPa ENE 5.0mph /  8km/h 7.0mph /  11.3km/h 67% 0.00in /  0mm
02:25 55.6 °F /  13.1 °C 45.2 °F /  7.3 °C 30.16in /  1021.2hPa ENE 3.0mph /  4.8km/h 7.0mph /  11.3km/h 68% 0.00in /  0mm
02:30 55.5 °F /  13.1 °C 45.1 °F /  7.3 °C 30.16in /  1021.2hPa NE 3.0mph /  4.8km/h 5.0mph /  8km/h 68% 0.00in /  0mm
02:35 55.5 °F /  13.1 °C 45.1 °F /  7.3 °C 30.16in /  1021.2hPa ENE 3.0mph /  4.8km/h 6.0mph /  9.7km/h 68% 0.00in /  0mm
02:40 55.4 °F /  13 °C 45.0 °F /  7.2 °C 30.16in /  1021.2hPa ENE 1.0mph /  1.6km/h 5.0mph /  8km/h 68% 0.00in /  0mm
02:45 55.5 °F /  13.1 °C 45.1 °F /  7.3 °C 30.16in /  1021.2hPa Calm   4.0mph /  6.4km/h 68% 0.00in /  0mm
02:50 55.6 °F /  13.1 °C 45.2 °F /  7.3 °C 30.16in /  1021.2hPa ENE 2.0mph /  3.2km/h 7.0mph /  11.3km/h 68% 0.00in /  0mm
02:55 55.7 °F /  13.2 °C 45.3 °F /  7.4 °C 30.17in /  1021.6hPa ENE 2.0mph /  3.2km/h 7.0mph /  11.3km/h 68% 0.00in /  0mm
03:00 55.6 °F /  13.1 °C 45.6 °F /  7.6 °C 30.17in /  1021.6hPa NE 3.0mph /  4.8km/h 7.0mph /  11.3km/h 69% 0.00in /  0mm
03:05 55.5 °F /  13.1 °C 45.5 °F /  7.5 °C 30.16in /  1021.2hPa ENE 2.0mph /  3.2km/h 5.0mph /  8km/h 69% 0.00in /  0mm
03:10 55.5 °F /  13.1 °C 45.5 °F /  7.5 °C 30.16in /  1021.2hPa ENE 4.0mph /  6.4km/h 7.0mph /  11.3km/h 69% 0.00in /  0mm
03:15 55.4 °F /  13 °C 45.4 °F /  7.4 °C 30.15in /  1020.9hPa ENE 5.0mph /  8km/h 8.0mph /  12.9km/h 69% 0.00in /  0mm
03:20 55.3 °F /  12.9 °C 45.3 °F /  7.4 °C 30.15in /  1020.9hPa NE 3.0mph /  4.8km/h 8.0mph /  12.9km/h 69% 0.00in /  0mm
03:25 55.4 °F /  13 °C 45.4 °F /  7.4 °C 30.15in /  1020.9hPa ENE 4.0mph /  6.4km/h 9.0mph /  14.5km/h 69% 0.00in /  0mm
03:30 55.3 °F /  12.9 °C 45.3 °F /  7.4 °C 30.14in /  1020.5hPa ENE 4.0mph /  6.4km/h 10.0mph /  16.1km/h 69% 0.00in /  0mm
03:35 55.1 °F /  12.8 °C 45.1 °F /  7.3 °C 30.14in /  1020.5hPa NE 5.0mph /  8km/h 10.0mph /  16.1km/h 69% 0.00in /  0mm
03:40 54.9 °F /  12.7 °C 44.9 °F /  7.2 °C 30.14in /  1020.5hPa NE 5.0mph /  8km/h 9.0mph /  14.5km/h 69% 0.00in /  0mm
03:45 54.8 °F /  12.7 °C 45.2 °F /  7.3 °C 30.14in /  1020.5hPa NE 4.0mph /  6.4km/h 8.0mph /  12.9km/h 70% 0.00in /  0mm
03:50 54.7 °F /  12.6 °C 45.1 °F /  7.3 °C 30.13in /  1020.2hPa NE 3.0mph /  4.8km/h 9.0mph /  14.5km/h 70% 0.00in /  0mm
03:55 54.6 °F /  12.6 °C 45.4 °F /  7.4 °C 30.13in /  1020.2hPa NE 4.0mph /  6.4km/h 9.0mph /  14.5km/h 71% 0.00in /  0mm
04:00 54.7 °F /  12.6 °C 45.5 °F /  7.5 °C 30.13in /  1020.2hPa NE 3.0mph /  4.8km/h 6.0mph /  9.7km/h 71% 0.00in /  0mm
04:05 54.7 °F /  12.6 °C 45.5 °F /  7.5 °C 30.13in /  1020.2hPa ENE 3.0mph /  4.8km/h 4.0mph /  6.4km/h 71% 0.00in /  0mm
04:10 54.9 °F /  12.7 °C 46.0 °F /  7.8 °C 30.13in /  1020.2hPa ENE 2.0mph /  3.2km/h 7.0mph /  11.3km/h 72% 0.00in /  0mm
04:15 55.1 °F /  12.8 °C 46.2 °F /  7.9 °C 30.13in /  1020.2hPa ENE 2.0mph /  3.2km/h 6.0mph /  9.7km/h 72% 0.00in /  0mm
04:20 55.1 °F /  12.8 °C 46.2 °F /  7.9 °C 30.13in /  1020.2hPa ENE 3.0mph /  4.8km/h 4.0mph /  6.4km/h 72% 0.00in /  0mm
04:25 55.1 °F /  12.8 °C 46.2 °F /  7.9 °C 30.13in /  1020.2hPa ENE 2.0mph /  3.2km/h 4.0mph /  6.4km/h 72% 0.00in /  0mm
04:30 55.1 °F /  12.8 °C 46.2 °F /  7.9 °C 30.13in /  1020.2hPa ENE 2.0mph /  3.2km/h 6.0mph /  9.7km/h 72% 0.00in /  0mm
04:35 55.0 °F /  12.8 °C 46.5 °F /  8.1 °C 30.13in /  1020.2hPa ENE 3.0mph /  4.8km/h 7.0mph /  11.3km/h 73% 0.00in /  0mm
04:40 55.0 °F /  12.8 °C 46.5 °F /  8.1 °C 30.13in /  1020.2hPa ENE 2.0mph /  3.2km/h 7.0mph /  11.3km/h 73% 0.00in /  0mm
04:45 55.1 °F /  12.8 °C 46.6 °F /  8.1 °C 30.13in /  1020.2hPa ENE 3.0mph /  4.8km/h 6.0mph /  9.7km/h 73% 0.00in /  0mm
04:50 55.1 °F /  12.8 °C 46.6 °F /  8.1 °C 30.12in /  1019.9hPa NE 4.0mph /  6.4km/h 6.0mph /  9.7km/h 73% 0.00in /  0mm
04:55 55.2 °F /  12.9 °C 46.7 °F /  8.2 °C 30.12in /  1019.9hPa ENE 4.0mph /  6.4km/h 7.0mph /  11.3km/h 73% 0.00in /  0mm
05:00 55.1 °F /  12.8 °C 47.0 °F /  8.3 °C 30.12in /  1019.9hPa ENE 3.0mph /  4.8km/h 7.0mph /  11.3km/h 74% 0.00in /  0mm
05:05 55.1 °F /  12.8 °C 47.0 °F /  8.3 °C 30.12in /  1019.9hPa ENE 3.0mph /  4.8km/h 7.0mph /  11.3km/h 74% 0.00in /  0mm
05:10 55.1 °F /  12.8 °C 47.3 °F /  8.5 °C 30.11in /  1019.5hPa ENE 3.0mph /  4.8km/h 7.0mph /  11.3km/h 75% 0.00in /  0mm
05:15 55.1 °F /  12.8 °C 47.3 °F /  8.5 °C 30.11in /  1019.5hPa East 1.0mph /  1.6km/h 5.0mph /  8km/h 75% 0.00in /  0mm
05:20 55.1 °F /  12.8 °C 47.7 °F /  8.7 °C 30.11in /  1019.5hPa East 2.0mph /  3.2km/h 7.0mph /  11.3km/h 76% 0.00in /  0mm
05:25 55.1 °F /  12.8 °C 47.7 °F /  8.7 °C 30.11in /  1019.5hPa ENE 1.0mph /  1.6km/h 6.0mph /  9.7km/h 76% 0.00in /  0mm
05:30 55.1 °F /  12.8 °C 47.7 °F /  8.7 °C 30.11in /  1019.5hPa ENE 3.0mph /  4.8km/h 8.0mph /  12.9km/h 76% 0.00in /  0mm
05:35 55.2 °F /  12.9 °C 48.1 °F /  8.9 °C 30.11in /  1019.5hPa East 3.0mph /  4.8km/h 4.0mph /  6.4km/h 77% 0.00in /  0mm
05:40 55.4 °F /  13 °C 48.3 °F /  9.1 °C 30.11in /  1019.5hPa NE 4.0mph /  6.4km/h 5.0mph /  8km/h 77% 0.00in /  0mm
05:45 55.6 °F /  13.1 °C 48.2 °F /  9 °C 30.12in /  1019.9hPa ENE 3.0mph /  4.8km/h 4.0mph /  6.4km/h 76% 0.00in /  0mm
05:50 55.7 °F /  13.2 °C 48.6 °F /  9.2 °C 30.12in /  1019.9hPa ENE 3.0mph /  4.8km/h 5.0mph /  8km/h 77% 0.00in /  0mm
05:55 55.8 °F /  13.2 °C 48.3 °F /  9.1 °C 30.11in /  1019.5hPa ENE 3.0mph /  4.8km/h 7.0mph /  11.3km/h 76% 0.00in /  0mm
06:00 55.9 °F /  13.3 °C 48.8 °F /  9.3 °C 30.11in /  1019.5hPa ENE 3.0mph /  4.8km/h 7.0mph /  11.3km/h 77% 0.00in /  0mm
06:05 55.9 °F /  13.3 °C 48.8 °F /  9.3 °C 30.11in /  1019.5hPa ENE 2.0mph /  3.2km/h 7.0mph /  11.3km/h 77% 0.00in /  0mm
06:10 56.0 °F /  13.3 °C 48.9 °F /  9.4 °C 30.12in /  1019.9hPa ENE 2.0mph /  3.2km/h 6.0mph /  9.7km/h 77% 0.00in /  0mm
06:15 56.0 °F /  13.3 °C 48.9 °F /  9.4 °C 30.11in /  1019.5hPa NE 2.0mph /  3.2km/h 4.0mph /  6.4km/h 77% 0.00in /  0mm
06:20 56.2 °F /  13.4 °C 49.1 °F /  9.5 °C 30.11in /  1019.5hPa ENE 2.0mph /  3.2km/h 7.0mph /  11.3km/h 77% 0.00in /  0mm
06:25 56.3 °F /  13.5 °C 49.2 °F /  9.6 °C 30.11in /  1019.5hPa East 2.0mph /  3.2km/h 6.0mph /  9.7km/h 77% 0.00in /  0mm
06:30 56.4 °F /  13.6 °C 49.3 °F /  9.6 °C 30.11in /  1019.5hPa East 2.0mph /  3.2km/h 5.0mph /  8km/h 77% 0.00in /  0mm
06:35 56.5 °F /  13.6 °C 49.7 °F /  9.8 °C 30.10in /  1019.2hPa East 3.0mph /  4.8km/h 5.0mph /  8km/h 78% 0.00in /  0mm
06:40 56.6 °F /  13.7 °C 49.8 °F /  9.9 °C 30.10in /  1019.2hPa ENE 3.0mph /  4.8km/h 7.0mph /  11.3km/h 78% 0.00in /  0mm
06:45 56.7 °F /  13.7 °C 49.9 °F /  9.9 °C 30.10in /  1019.2hPa East 2.0mph /  3.2km/h 6.0mph /  9.7km/h 78% 0.00in /  0mm
06:50 56.7 °F /  13.7 °C 49.9 °F /  9.9 °C 30.10in /  1019.2hPa East 3.0mph /  4.8km/h 6.0mph /  9.7km/h 78% 0.00in /  0mm
06:55 56.7 °F /  13.7 °C 49.9 °F /  9.9 °C 30.10in /  1019.2hPa East 1.0mph /  1.6km/h 5.0mph /  8km/h 78% 0.00in /  0mm
07:00 56.9 °F /  13.8 °C 50.1 °F /  10.1 °C 30.10in /  1019.2hPa East 2.0mph /  3.2km/h 5.0mph /  8km/h 78% 0.00in /  0mm
07:05 57.2 °F /  14 °C 50.4 °F /  10.2 °C 30.10in /  1019.2hPa East 2.0mph /  3.2km/h 6.0mph /  9.7km/h 78% 0.00in /  0mm
07:10 57.4 °F /  14.1 °C 50.6 °F /  10.3 °C 30.10in /  1019.2hPa ESE 2.0mph /  3.2km/h 7.0mph /  11.3km/h 78% 0.00in /  0mm
07:15 57.7 °F /  14.3 °C 50.9 °F /  10.5 °C 30.09in /  1018.8hPa ESE 2.0mph /  3.2km/h 7.0mph /  11.3km/h 78% 0.00in /  0mm
07:20 58.0 °F /  14.4 °C 51.2 °F /  10.7 °C 30.10in /  1019.2hPa SE 2.0mph /  3.2km/h 6.0mph /  9.7km/h 78% 0.00in /  0mm
07:25 58.4 °F /  14.7 °C 51.6 °F /  10.9 °C 30.10in /  1019.2hPa SE 1.0mph /  1.6km/h 6.0mph /  9.7km/h 78% 0.00in /  0mm
07:30 59.0 °F /  15 °C 52.1 °F /  11.2 °C 30.10in /  1019.2hPa Calm   3.0mph /  4.8km/h 78% 0.00in /  0mm
07:35 59.7 °F /  15.4 °C 52.5 °F /  11.4 °C 30.10in /  1019.2hPa East 1.0mph /  1.6km/h 6.0mph /  9.7km/h 77% 0.00in /  0mm
07:40 60.1 °F /  15.6 °C 52.9 °F /  11.6 °C 30.11in /  1019.5hPa Calm   6.0mph /  9.7km/h 77% 0.00in /  0mm
07:45 60.3 °F /  15.7 °C 53.1 °F /  11.7 °C 30.11in /  1019.5hPa Calm     77% 0.00in /  0mm
07:50 60.4 °F /  15.8 °C 53.2 °F /  11.8 °C 30.11in /  1019.5hPa Calm     77% 0.00in /  0mm
07:55 60.7 °F /  15.9 °C 53.4 °F /  11.9 °C 30.10in /  1019.2hPa Calm     77% 0.00in /  0mm
08:00 60.8 °F /  16 °C 53.5 °F /  11.9 °C 30.11in /  1019.5hPa Calm     77% 0.00in /  0mm
08:05 60.8 °F /  16 °C 54.2 °F /  12.3 °C 30.10in /  1019.2hPa Calm     79% 0.00in /  0mm
08:10 60.5 °F /  15.8 °C 54.3 °F /  12.4 °C 30.11in /  1019.5hPa Calm     80% 0.00in /  0mm
08:15 60.4 °F /  15.8 °C 54.5 °F /  12.5 °C 30.11in /  1019.5hPa Calm     81% 0.00in /  0mm
08:20 60.1 °F /  15.6 °C 54.9 °F /  12.7 °C 30.12in /  1019.9hPa Calm     83% 0.05in /  1.27mm
08:25 59.7 °F /  15.4 °C 54.9 °F /  12.7 °C 30.12in /  1019.9hPa Calm     84% 0.06in /  1.52mm
08:30 59.5 °F /  15.3 °C 55.3 °F /  12.9 °C 30.13in /  1020.2hPa WNW 2.0mph /  3.2km/h 4.0mph /  6.4km/h 86% 0.06in /  1.52mm
08:35 59.1 °F /  15.1 °C 54.9 °F /  12.7 °C 30.12in /  1019.9hPa WNW 1.0mph /  1.6km/h 6.0mph /  9.7km/h 86% 0.08in /  2.03mm
08:40 58.8 °F /  14.9 °C 54.9 °F /  12.7 °C 30.12in /  1019.9hPa Calm   1.0mph /  1.6km/h 87% 0.09in /  2.29mm
08:45 58.7 °F /  14.8 °C 55.2 °F /  12.9 °C 30.12in /  1019.9hPa WNW 2.0mph /  3.2km/h 2.0mph /  3.2km/h 88% 0.10in /  2.54mm
08:50 58.7 °F /  14.8 °C 55.2 °F /  12.9 °C 30.12in /  1019.9hPa Calm   2.0mph /  3.2km/h 88% 0.15in /  3.81mm
08:55 58.5 °F /  14.7 °C 55.3 °F /  12.9 °C 30.11in /  1019.5hPa Calm     89% 0.16in /  4.06mm
09:00 58.5 °F /  14.7 °C 55.3 °F /  12.9 °C 30.11in /  1019.5hPa Calm     89% 0.16in /  4.06mm
09:05 58.9 °F /  14.9 °C 56.0 °F /  13.3 °C 30.10in /  1019.2hPa Calm   1.0mph /  1.6km/h 90% 0.16in /  4.06mm
09:10 59.2 °F /  15.1 °C 56.3 °F /  13.5 °C 30.10in /  1019.2hPa Calm   1.0mph /  1.6km/h 90% 0.16in /  4.06mm
09:15 59.4 °F /  15.2 °C 56.5 °F /  13.6 °C 30.10in /  1019.2hPa Calm     90% 0.16in /  4.06mm
09:20 59.7 °F /  15.4 °C 56.8 °F /  13.8 °C 30.10in /  1019.2hPa Calm     90% 0.11in /  2.79mm
09:25 60.4 °F /  15.8 °C 57.5 °F /  14.2 °C 30.10in /  1019.2hPa Calm     90% 0.10in /  2.54mm
09:30 60.2 °F /  15.7 °C 56.9 °F /  13.8 °C 30.10in /  1019.2hPa NNE 1.0mph /  1.6km/h 3.0mph /  4.8km/h 89% 0.10in /  2.54mm
09:35 60.2 °F /  15.7 °C 56.9 °F /  13.8 °C 30.10in /  1019.2hPa NNE 1.0mph /  1.6km/h 2.0mph /  3.2km/h 89% 0.08in /  2.03mm
09:40 60.4 °F /  15.8 °C 57.1 °F /  13.9 °C 30.10in /  1019.2hPa NNE 1.0mph /  1.6km/h 2.0mph /  3.2km/h 89% 0.06in /  1.52mm
09:45 60.5 °F /  15.8 °C 56.9 °F /  13.8 °C 30.10in /  1019.2hPa Calm   2.0mph /  3.2km/h 88% 0.06in /  1.52mm
09:50 60.9 °F /  16.1 °C 57.6 °F /  14.2 °C 30.10in /  1019.2hPa Calm     89% 0.01in /  0.25mm
09:55 61.4 °F /  16.3 °C 57.8 °F /  14.3 °C 30.09in /  1018.8hPa Calm     88% 0.00in /  0mm
10:00 62.3 °F /  16.8 °C 58.7 °F /  14.8 °C 30.09in /  1018.8hPa Calm     88% 0.00in /  0mm
10:05 62.4 °F /  16.9 °C 58.2 °F /  14.6 °C 30.09in /  1018.8hPa ESE 1.0mph /  1.6km/h 5.0mph /  8km/h 86% 0.00in /  0mm
10:10 62.4 °F /  16.9 °C 58.2 °F /  14.6 °C 30.09in /  1018.8hPa East 1.0mph /  1.6km/h 5.0mph /  8km/h 86% 0.00in /  0mm
10:15 62.6 °F /  17 °C 58.4 °F /  14.7 °C 30.09in /  1018.8hPa East 2.0mph /  3.2km/h 2.0mph /  3.2km/h 86% 0.00in /  0mm
10:20 62.6 °F /  17 °C 58.0 °F /  14.4 °C 30.09in /  1018.8hPa Calm   3.0mph /  4.8km/h 85% 0.00in /  0mm
10:25 62.6 °F /  17 °C 58.0 °F /  14.4 °C 30.09in /  1018.8hPa ESE 2.0mph /  3.2km/h 3.0mph /  4.8km/h 85% 0.00in /  0mm
10:30 62.8 °F /  17.1 °C 58.2 °F /  14.6 °C 30.09in /  1018.8hPa ENE 1.0mph /  1.6km/h 3.0mph /  4.8km/h 85% 0.00in /  0mm
10:35 63.0 °F /  17.2 °C 58.4 °F /  14.7 °C 30.09in /  1018.8hPa East 1.0mph /  1.6km/h 3.0mph /  4.8km/h 85% 0.00in /  0mm
10:40 63.2 °F /  17.3 °C 58.6 °F /  14.8 °C 30.09in /  1018.8hPa ENE 1.0mph /  1.6km/h 3.0mph /  4.8km/h 85% 0.00in /  0mm
10:45 63.4 °F /  17.4 °C 58.5 °F /  14.7 °C 30.09in /  1018.8hPa ENE 2.0mph /  3.2km/h 5.0mph /  8km/h 84% 0.00in /  0mm
10:50 63.8 °F /  17.7 °C 58.9 °F /  14.9 °C 30.08in /  1018.5hPa ENE 2.0mph /  3.2km/h 5.0mph /  8km/h 84% 0.00in /  0mm
10:55 64.5 °F /  18.1 °C 59.2 °F /  15.1 °C 30.08in /  1018.5hPa ENE 1.0mph /  1.6km/h 4.0mph /  6.4km/h 83% 0.00in /  0mm
11:00 64.7 °F /  18.2 °C 58.7 °F /  14.8 °C 30.08in /  1018.5hPa Calm     81% 0.00in /  0mm
11:05 65.4 °F /  18.6 °C 59.8 °F /  15.4 °C 30.08in /  1018.5hPa ENE 2.0mph /  3.2km/h 3.0mph /  4.8km/h 82% 0.00in /  0mm
11:10 66.2 °F /  19 °C 59.8 °F /  15.4 °C 30.08in /  1018.5hPa Calm   3.0mph /  4.8km/h 80% 0.00in /  0mm
11:15 66.5 °F /  19.2 °C 59.8 °F /  15.4 °C 30.08in /  1018.5hPa East 2.0mph /  3.2km/h 7.0mph /  11.3km/h 79% 0.00in /  0mm
11:20 66.9 °F /  19.4 °C 59.5 °F /  15.3 °C 30.08in /  1018.5hPa ENE 2.0mph /  3.2km/h 4.0mph /  6.4km/h 77% 0.00in /  0mm
11:25 67.3 °F /  19.6 °C 59.1 °F /  15.1 °C 30.07in /  1018.2hPa East 1.0mph /  1.6km/h 7.0mph /  11.3km/h 75% 0.00in /  0mm
11:30 67.7 °F /  19.8 °C 59.5 °F /  15.3 °C 30.07in /  1018.2hPa ENE 2.0mph /  3.2km/h 6.0mph /  9.7km/h 75% 0.00in /  0mm
11:35 68.0 °F /  20 °C 59.8 °F /  15.4 °C 30.06in /  1017.8hPa East 1.0mph /  1.6km/h 6.0mph /  9.7km/h 75% 0.00in /  0mm
11:40 68.2 °F /  20.1 °C 59.6 °F /  15.3 °C 30.06in /  1017.8hPa ENE 1.0mph /  1.6km/h 3.0mph /  4.8km/h 74% 0.00in /  0mm
11:45 68.6 °F /  20.3 °C 60.4 °F /  15.8 °C 30.06in /  1017.8hPa Calm     75% 0.00in /  0mm
11:50 69.0 °F /  20.6 °C 60.4 °F /  15.8 °C 30.06in /  1017.8hPa East 1.0mph /  1.6km/h 3.0mph /  4.8km/h 74% 0.00in /  0mm
11:55 69.3 °F /  20.7 °C 59.9 °F /  15.5 °C 30.06in /  1017.8hPa East 1.0mph /  1.6km/h 3.0mph /  4.8km/h 72% 0.00in /  0mm
12:05 70.2 °F /  21.2 °C 60.4 °F /  15.8 °C 30.05in /  1017.5hPa Calm   2.0mph /  3.2km/h 71% 0.00in /  0mm
12:10 70.7 °F /  21.5 °C 61.2 °F /  16.2 °C 30.05in /  1017.5hPa Calm   3.0mph /  4.8km/h 72% 0.00in /  0mm
12:15 71.2 °F /  21.8 °C 60.9 °F /  16.1 °C 30.05in /  1017.5hPa East 3.0mph /  4.8km/h 4.0mph /  6.4km/h 70% 0.00in /  0mm
12:20 71.5 °F /  21.9 °C 61.6 °F /  16.4 °C 30.04in /  1017.2hPa SE 2.0mph /  3.2km/h 4.0mph /  6.4km/h 71% 0.00in /  0mm
12:25 71.3 °F /  21.8 °C 60.6 °F /  15.9 °C 30.04in /  1017.2hPa SSE 2.0mph /  3.2km/h 5.0mph /  8km/h 69% 0.00in /  0mm
12:30 71.1 °F /  21.7 °C 60.0 °F /  15.6 °C 30.04in /  1017.2hPa Calm   4.0mph /  6.4km/h 68% 0.00in /  0mm
12:35 71.2 °F /  21.8 °C 60.5 °F /  15.8 °C 30.04in /  1017.2hPa SSE 1.0mph /  1.6km/h 4.0mph /  6.4km/h 69% 0.00in /  0mm
12:40 71.3 °F /  21.8 °C 61.0 °F /  16.1 °C 30.04in /  1017.2hPa Calm     70% 0.00in /  0mm
12:45 71.5 °F /  21.9 °C 61.2 °F /  16.2 °C 30.04in /  1017.2hPa Calm     70% 0.00in /  0mm
12:50 72.0 °F /  22.2 °C 61.3 °F /  16.3 °C 30.03in /  1016.8hPa Calm     69% 0.00in /  0mm
12:55 72.6 °F /  22.6 °C 61.0 °F /  16.1 °C 30.03in /  1016.8hPa Calm   4.0mph /  6.4km/h 67% 0.00in /  0mm
13:00 72.6 °F /  22.6 °C 61.0 °F /  16.1 °C 30.03in /  1016.8hPa East 1.0mph /  1.6km/h 4.0mph /  6.4km/h 67% 0.00in /  0mm
13:05 72.5 °F /  22.5 °C 60.5 °F /  15.8 °C 30.03in /  1016.8hPa East 1.0mph /  1.6km/h 3.0mph /  4.8km/h 66% 0.00in /  0mm
13:10 72.7 °F /  22.6 °C 60.7 °F /  15.9 °C 30.03in /  1016.8hPa Calm   3.0mph /  4.8km/h 66% 0.00in /  0mm
13:15 72.5 °F /  22.5 °C 60.1 °F /  15.6 °C 30.02in /  1016.5hPa Calm     65% 0.00in /  0mm
13:20 72.6 °F /  22.6 °C 61.0 °F /  16.1 °C 30.02in /  1016.5hPa Calm   3.0mph /  4.8km/h 67% 0.00in /  0mm
13:25 72.8 °F /  22.7 °C 61.2 °F /  16.2 °C 30.02in /  1016.5hPa Calm   2.0mph /  3.2km/h 67% 0.00in /  0mm
13:30 73.0 °F /  22.8 °C 61.4 °F /  16.3 °C 30.02in /  1016.5hPa Calm     67% 0.00in /  0mm
13:35 72.9 °F /  22.7 °C 60.9 °F /  16.1 °C 30.02in /  1016.5hPa Calm   3.0mph /  4.8km/h 66% 0.00in /  0mm
13:40 73.0 °F /  22.8 °C 61.4 °F /  16.3 °C 30.02in /  1016.5hPa Calm   4.0mph /  6.4km/h 67% 0.00in /  0mm
13:45 73.3 °F /  22.9 °C 60.8 °F /  16 °C 30.02in /  1016.5hPa SW 1.0mph /  1.6km/h 6.0mph /  9.7km/h 65% 0.00in /  0mm
13:50 73.6 °F /  23.1 °C 61.1 °F /  16.2 °C 30.02in /  1016.5hPa South 1.0mph /  1.6km/h 5.0mph /  8km/h 65% 0.00in /  0mm
13:55 73.7 °F /  23.2 °C 61.6 °F /  16.4 °C 30.02in /  1016.5hPa SSW 1.0mph /  1.6km/h 3.0mph /  4.8km/h 66% 0.00in /  0mm
14:00 72.8 °F /  22.7 °C 62.0 °F /  16.7 °C 30.02in /  1016.5hPa WNW 3.0mph /  4.8km/h 6.0mph /  9.7km/h 69% 0.00in /  0mm
14:05 72.1 °F /  22.3 °C 61.8 °F /  16.6 °C 30.01in /  1016.1hPa WNW 3.0mph /  4.8km/h 6.0mph /  9.7km/h 70% 0.00in /  0mm
14:10 72.0 °F /  22.2 °C 61.7 °F /  16.5 °C 30.01in /  1016.1hPa WNW 2.0mph /  3.2km/h 5.0mph /  8km/h 70% 0.00in /  0mm
14:15 72.3 °F /  22.4 °C 62.0 °F /  16.7 °C 30.01in /  1016.1hPa NW 1.0mph /  1.6km/h 4.0mph /  6.4km/h 70% 0.00in /  0mm
14:20 72.4 °F /  22.4 °C 61.7 °F /  16.5 °C 30.01in /  1016.1hPa Calm   1.0mph /  1.6km/h 69% 0.00in /  0mm
14:25 72.4 °F /  22.4 °C 61.7 °F /  16.5 °C 30.01in /  1016.1hPa Calm   3.0mph /  4.8km/h 69% 0.00in /  0mm
14:30 72.3 °F /  22.4 °C 62.0 °F /  16.7 °C 30.01in /  1016.1hPa WSW 1.0mph /  1.6km/h 2.0mph /  3.2km/h 70% 0.00in /  0mm
14:35 72.1 °F /  22.3 °C 62.2 °F /  16.8 °C 30.01in /  1016.1hPa WSW 1.0mph /  1.6km/h 3.0mph /  4.8km/h 71% 0.00in /  0mm
14:40 71.7 °F /  22.1 °C 62.2 °F /  16.8 °C 30.01in /  1016.1hPa West 2.0mph /  3.2km/h 3.0mph /  4.8km/h 72% 0.00in /  0mm
14:45 71.5 °F /  21.9 °C 62.4 °F /  16.9 °C 30.01in /  1016.1hPa West 1.0mph /  1.6km/h 3.0mph /  4.8km/h 73% 0.00in /  0mm
14:50 71.6 °F /  22 °C 62.9 °F /  17.2 °C 30.00in /  1015.8hPa Calm   1.0mph /  1.6km/h 74% 0.00in /  0mm
14:55 71.6 °F /  22 °C 62.1 °F /  16.7 °C 30.00in /  1015.8hPa Calm     72% 0.00in /  0mm
15:00 71.7 °F /  22.1 °C 61.4 °F /  16.3 °C 30.00in /  1015.8hPa Calm     70% 0.00in /  0mm
15:05 71.8 °F /  22.1 °C 61.5 °F /  16.4 °C 30.00in /  1015.8hPa Calm   2.0mph /  3.2km/h 70% 0.00in /  0mm
15:10 71.9 °F /  22.2 °C 60.8 °F /  16 °C 29.99in /  1015.5hPa SW 1.0mph /  1.6km/h 4.0mph /  6.4km/h 68% 0.00in /  0mm
15:15 72.1 °F /  22.3 °C 60.5 °F /  15.8 °C 29.99in /  1015.5hPa SSW 2.0mph /  3.2km/h 5.0mph /  8km/h 67% 0.00in /  0mm
15:20 72.4 °F /  22.4 °C 60.4 °F /  15.8 °C 29.99in /  1015.5hPa South 2.0mph /  3.2km/h 5.0mph /  8km/h 66% 0.00in /  0mm
15:25 72.4 °F /  22.4 °C 60.4 °F /  15.8 °C 29.99in /  1015.5hPa South 2.0mph /  3.2km/h 6.0mph /  9.7km/h 66% 0.00in /  0mm
15:30 72.4 °F /  22.4 °C 60.0 °F /  15.6 °C 29.99in /  1015.5hPa South 1.0mph /  1.6km/h 5.0mph /  8km/h 65% 0.00in /  0mm
15:35 72.3 °F /  22.4 °C 60.3 °F /  15.7 °C 29.99in /  1015.5hPa South 3.0mph /  4.8km/h 6.0mph /  9.7km/h 66% 0.00in /  0mm
15:40 72.1 °F /  22.3 °C 60.5 °F /  15.8 °C 29.98in /  1015.1hPa South 3.0mph /  4.8km/h 8.0mph /  12.9km/h 67% 0.00in /  0mm
15:45 71.5 °F /  21.9 °C 60.8 °F /  16 °C 29.98in /  1015.1hPa South 1.0mph /  1.6km/h 6.0mph /  9.7km/h 69% 0.00in /  0mm
15:50 71.0 °F /  21.7 °C 61.1 °F /  16.2 °C 29.98in /  1015.1hPa SSW 6.0mph /  9.7km/h 8.0mph /  12.9km/h 71% 0.00in /  0mm
15:55 70.8 °F /  21.6 °C 60.9 °F /  16.1 °C 29.98in /  1015.1hPa South 3.0mph /  4.8km/h 7.0mph /  11.3km/h 71% 0.00in /  0mm
16:00 70.6 °F /  21.4 °C 60.7 °F /  15.9 °C 29.98in /  1015.1hPa Calm   6.0mph /  9.7km/h 71% 0.00in /  0mm
16:05 70.3 °F /  21.3 °C 60.8 °F /  16 °C 29.98in /  1015.1hPa South 2.0mph /  3.2km/h 4.0mph /  6.4km/h 72% 0.00in /  0mm
16:10 70.0 °F /  21.1 °C 60.9 °F /  16.1 °C 29.99in /  1015.5hPa SSW 2.0mph /  3.2km/h 7.0mph /  11.3km/h 73% 0.00in /  0mm
16:15 69.7 °F /  20.9 °C 61.0 °F /  16.1 °C 29.99in /  1015.5hPa SSW 3.0mph /  4.8km/h 7.0mph /  11.3km/h 74% 0.00in /  0mm
16:20 69.0 °F /  20.6 °C 60.7 °F /  15.9 °C 30.00in /  1015.8hPa SSW 4.0mph /  6.4km/h 8.0mph /  12.9km/h 75% 0.01in /  0.25mm
16:25 68.3 °F /  20.2 °C 61.2 °F /  16.2 °C 30.00in /  1015.8hPa SSW 4.0mph /  6.4km/h 8.0mph /  12.9km/h 78% 0.02in /  0.51mm
16:30 67.6 °F /  19.8 °C 60.9 °F /  16.1 °C 30.00in /  1015.8hPa SSW 1.0mph /  1.6km/h 7.0mph /  11.3km/h 79% 0.02in /  0.51mm
16:35 67.0 °F /  19.4 °C 61.0 °F /  16.1 °C 30.00in /  1015.8hPa SW 3.0mph /  4.8km/h 5.0mph /  8km/h 81% 0.03in /  0.76mm
16:40 66.5 °F /  19.2 °C 60.8 °F /  16 °C 30.00in /  1015.8hPa SSW 2.0mph /  3.2km/h 6.0mph /  9.7km/h 82% 0.04in /  1.02mm
16:45 66.1 °F /  18.9 °C 61.1 °F /  16.2 °C 29.99in /  1015.5hPa SSW 2.0mph /  3.2km/h 7.0mph /  11.3km/h 84% 0.06in /  1.52mm
16:50 65.6 °F /  18.7 °C 60.6 °F /  15.9 °C 29.99in /  1015.5hPa South 2.0mph /  3.2km/h 7.0mph /  11.3km/h 84% 0.08in /  2.03mm
16:55 65.5 °F /  18.6 °C 61.2 °F /  16.2 °C 29.99in /  1015.5hPa Calm   4.0mph /  6.4km/h 86% 0.09in /  2.29mm
17:00 65.4 °F /  18.6 °C 61.1 °F /  16.2 °C 29.99in /  1015.5hPa Calm   4.0mph /  6.4km/h 86% 0.10in /  2.54mm
17:05 65.2 °F /  18.4 °C 60.9 °F /  16.1 °C 29.99in /  1015.5hPa SW 3.0mph /  4.8km/h 4.0mph /  6.4km/h 86% 0.10in /  2.54mm
17:10 65.1 °F /  18.4 °C 61.1 °F /  16.2 °C 29.99in /  1015.5hPa SSW 2.0mph /  3.2km/h 4.0mph /  6.4km/h 87% 0.10in /  2.54mm
17:15 65.1 °F /  18.4 °C 61.1 °F /  16.2 °C 29.99in /  1015.5hPa South 2.0mph /  3.2km/h 6.0mph /  9.7km/h 87% 0.10in /  2.54mm
17:20 65.0 °F /  18.3 °C 61.0 °F /  16.1 °C 29.99in /  1015.5hPa SSE 5.0mph /  8km/h 5.0mph /  8km/h 87% 0.09in /  2.29mm
17:25 64.8 °F /  18.2 °C 60.8 °F /  16 °C 29.98in /  1015.1hPa SSE 5.0mph /  8km/h 6.0mph /  9.7km/h 87% 0.09in /  2.29mm
17:30 64.7 °F /  18.2 °C 60.4 °F /  15.8 °C 29.99in /  1015.5hPa SSE 6.0mph /  9.7km/h 9.0mph /  14.5km/h 86% 0.09in /  2.29mm
17:35 64.6 °F /  18.1 °C 60.0 °F /  15.6 °C 29.98in /  1015.1hPa SSE 8.0mph /  12.9km/h 12.0mph /  19.3km/h 85% 0.08in /  2.03mm
17:40 64.5 °F /  18.1 °C 59.9 °F /  15.5 °C 29.98in /  1015.1hPa SSE 6.0mph /  9.7km/h 12.0mph /  19.3km/h 85% 0.06in /  1.52mm
17:45 64.4 °F /  18 °C 59.8 °F /  15.4 °C 29.98in /  1015.1hPa SSE 6.0mph /  9.7km/h 12.0mph /  19.3km/h 85% 0.04in /  1.02mm
17:50 64.3 °F /  17.9 °C 59.7 °F /  15.4 °C 29.98in /  1015.1hPa SSE 4.0mph /  6.4km/h 10.0mph /  16.1km/h 85% 0.03in /  0.76mm
17:55 64.1 °F /  17.8 °C 59.5 °F /  15.3 °C 29.98in /  1015.1hPa South 4.0mph /  6.4km/h 10.0mph /  16.1km/h 85% 0.02in /  0.51mm
18:00 63.8 °F /  17.7 °C 58.9 °F /  14.9 °C 29.98in /  1015.1hPa SSE 8.0mph /  12.9km/h 9.0mph /  14.5km/h 84% 0.02in /  0.51mm
18:05 63.3 °F /  17.4 °C 58.4 °F /  14.7 °C 29.97in /  1014.8hPa SE 4.0mph /  6.4km/h 10.0mph /  16.1km/h 84% 0.02in /  0.51mm
18:10 63.0 °F /  17.2 °C 58.1 °F /  14.5 °C 29.98in /  1015.1hPa SSE 5.0mph /  8km/h 10.0mph /  16.1km/h 84% 0.02in /  0.51mm
18:15 62.4 °F /  16.9 °C 57.2 °F /  14 °C 29.98in /  1015.1hPa South 6.0mph /  9.7km/h 15.0mph /  24.1km/h 83% 0.03in /  0.76mm
18:20 62.0 °F /  16.7 °C 57.1 °F /  13.9 °C 29.97in /  1014.8hPa South 7.0mph /  11.3km/h 13.0mph /  20.9km/h 84% 0.03in /  0.76mm
18:25 61.8 °F /  16.6 °C 56.9 °F /  13.8 °C 29.98in /  1015.1hPa SE 7.0mph /  11.3km/h 10.0mph /  16.1km/h 84% 0.02in /  0.51mm
18:30 61.7 °F /  16.5 °C 57.1 °F /  13.9 °C 29.98in /  1015.1hPa South 2.0mph /  3.2km/h 9.0mph /  14.5km/h 85% 0.02in /  0.51mm
18:35 61.6 °F /  16.4 °C 57.4 °F /  14.1 °C 29.98in /  1015.1hPa SSW 2.0mph /  3.2km/h 8.0mph /  12.9km/h 86% 0.03in /  0.76mm
18:40 61.5 °F /  16.4 °C 57.3 °F /  14.1 °C 29.98in /  1015.1hPa South 3.0mph /  4.8km/h 8.0mph /  12.9km/h 86% 0.03in /  0.76mm
18:45 61.4 °F /  16.3 °C 57.2 °F /  14 °C 29.98in /  1015.1hPa South 3.0mph /  4.8km/h 7.0mph /  11.3km/h 86% 0.04in /  1.02mm
18:50 61.4 °F /  16.3 °C 57.5 °F /  14.2 °C 29.97in /  1014.8hPa South 3.0mph /  4.8km/h 6.0mph /  9.7km/h 87% 0.04in /  1.02mm
18:55 61.4 °F /  16.3 °C 57.2 °F /  14 °C 29.97in /  1014.8hPa South 3.0mph /  4.8km/h 7.0mph /  11.3km/h 86% 0.04in /  1.02mm
19:00 61.4 °F /  16.3 °C 57.2 °F /  14 °C 29.97in /  1014.8hPa South 3.0mph /  4.8km/h 8.0mph /  12.9km/h 86% 0.03in /  0.76mm
19:05 61.4 °F /  16.3 °C 56.8 °F /  13.8 °C 29.97in /  1014.8hPa SSW 5.0mph /  8km/h 8.0mph /  12.9km/h 85% 0.03in /  0.76mm
19:10 61.2 °F /  16.2 °C 56.7 °F /  13.7 °C 29.97in /  1014.8hPa South 4.0mph /  6.4km/h 9.0mph /  14.5km/h 85% 0.03in /  0.76mm
19:15 61.1 °F /  16.2 °C 56.2 °F /  13.4 °C 29.97in /  1014.8hPa South 3.0mph /  4.8km/h 8.0mph /  12.9km/h 84% 0.02in /  0.51mm
19:20 61.0 °F /  16.1 °C 56.1 °F /  13.4 °C 29.97in /  1014.8hPa SE 3.0mph /  4.8km/h 8.0mph /  12.9km/h 84% 0.02in /  0.51mm
19:25 60.9 °F /  16.1 °C 56.0 °F /  13.3 °C 29.98in /  1015.1hPa SE 2.0mph /  3.2km/h 7.0mph /  11.3km/h 84% 0.02in /  0.51mm
19:30 60.9 °F /  16.1 °C 56.0 °F /  13.3 °C 29.97in /  1014.8hPa SSE 4.0mph /  6.4km/h 6.0mph /  9.7km/h 84% 0.02in /  0.51mm
19:35 60.9 °F /  16.1 °C 56.0 °F /  13.3 °C 29.97in /  1014.8hPa SSW 3.0mph /  4.8km/h 6.0mph /  9.7km/h 84% 0.01in /  0.25mm
19:40 60.8 °F /  16 °C 55.9 °F /  13.3 °C 29.97in /  1014.8hPa South 3.0mph /  4.8km/h 6.0mph /  9.7km/h 84% 0.01in /  0.25mm
19:45 60.8 °F /  16 °C 55.6 °F /  13.1 °C 29.97in /  1014.8hPa South 3.0mph /  4.8km/h 6.0mph /  9.7km/h 83% 0.00in /  0mm
19:50 60.8 °F /  16 °C 55.6 °F /  13.1 °C 29.97in /  1014.8hPa South 3.0mph /  4.8km/h 7.0mph /  11.3km/h 83% 0.00in /  0mm
19:55 60.7 °F /  15.9 °C 55.5 °F /  13.1 °C 29.97in /  1014.8hPa South 3.0mph /  4.8km/h 7.0mph /  11.3km/h 83% 0.00in /  0mm
20:00 60.8 °F /  16 °C 55.6 °F /  13.1 °C 29.97in /  1014.8hPa Calm   7.0mph /  11.3km/h 83% 0.00in /  0mm
20:05 60.7 °F /  15.9 °C 55.5 °F /  13.1 °C 29.97in /  1014.8hPa SSW 3.0mph /  4.8km/h 7.0mph /  11.3km/h 83% 0.00in /  0mm
20:10 60.8 °F /  16 °C 55.6 °F /  13.1 °C 29.97in /  1014.8hPa South 3.0mph /  4.8km/h 10.0mph /  16.1km/h 83% 0.00in /  0mm
20:15 61.0 °F /  16.1 °C 55.5 °F /  13.1 °C 29.97in /  1014.8hPa SSW 4.0mph /  6.4km/h 8.0mph /  12.9km/h 82% 0.00in /  0mm
20:20 60.9 °F /  16.1 °C 55.4 °F /  13 °C 29.97in /  1014.8hPa South 3.0mph /  4.8km/h 7.0mph /  11.3km/h 82% 0.00in /  0mm
20:25 61.0 °F /  16.1 °C 55.5 °F /  13.1 °C 29.97in /  1014.8hPa South 5.0mph /  8km/h 9.0mph /  14.5km/h 82% 0.00in /  0mm
20:30 61.1 °F /  16.2 °C 55.2 °F /  12.9 °C 29.97in /  1014.8hPa South 6.0mph /  9.7km/h 13.0mph /  20.9km/h 81% 0.00in /  0mm
20:35 61.1 °F /  16.2 °C 55.2 °F /  12.9 °C 29.96in /  1014.4hPa SSW 5.0mph /  8km/h 10.0mph /  16.1km/h 81% 0.00in /  0mm
20:40 60.9 °F /  16.1 °C 55.4 °F /  13 °C 29.96in /  1014.4hPa South 5.0mph /  8km/h 10.0mph /  16.1km/h 82% 0.00in /  0mm
20:45 60.8 °F /  16 °C 54.9 °F /  12.7 °C 29.96in /  1014.4hPa South 6.0mph /  9.7km/h 18.0mph /  29km/h 81% 0.00in /  0mm
20:50 60.8 °F /  16 °C 54.9 °F /  12.7 °C 29.96in /  1014.4hPa SSW 5.0mph /  8km/h 10.0mph /  16.1km/h 81% 0.00in /  0mm
20:55 60.6 °F /  15.9 °C 54.7 °F /  12.6 °C 29.96in /  1014.4hPa South 2.0mph /  3.2km/h 10.0mph /  16.1km/h 81% 0.00in /  0mm
21:00 60.6 °F /  15.9 °C 55.1 °F /  12.8 °C 29.96in /  1014.4hPa South 4.0mph /  6.4km/h 11.0mph /  17.7km/h 82% 0.00in /  0mm
21:05 60.5 °F /  15.8 °C 55.0 °F /  12.8 °C 29.96in /  1014.4hPa SSW 6.0mph /  9.7km/h 10.0mph /  16.1km/h 82% 0.00in /  0mm
21:10 60.4 °F /  15.8 °C 54.9 °F /  12.7 °C 29.96in /  1014.4hPa South 4.0mph /  6.4km/h 10.0mph /  16.1km/h 82% 0.00in /  0mm
21:15 60.4 °F /  15.8 °C 54.9 °F /  12.7 °C 29.96in /  1014.4hPa South 5.0mph /  8km/h 12.0mph /  19.3km/h 82% 0.00in /  0mm
21:20 60.3 °F /  15.7 °C 54.8 °F /  12.7 °C 29.97in /  1014.8hPa South 5.0mph /  8km/h 12.0mph /  19.3km/h 82% 0.00in /  0mm
21:25 60.3 °F /  15.7 °C 54.8 °F /  12.7 °C 29.97in /  1014.8hPa South 4.0mph /  6.4km/h 13.0mph /  20.9km/h 82% 0.00in /  0mm
21:30 60.3 °F /  15.7 °C 54.8 °F /  12.7 °C 29.97in /  1014.8hPa South 5.0mph /  8km/h 15.0mph /  24.1km/h 82% 0.00in /  0mm
21:35 60.2 °F /  15.7 °C 54.7 °F /  12.6 °C 29.96in /  1014.4hPa SSW 6.0mph /  9.7km/h 13.0mph /  20.9km/h 82% 0.00in /  0mm
21:40 60.2 °F /  15.7 °C 54.7 °F /  12.6 °C 29.96in /  1014.4hPa South 3.0mph /  4.8km/h 13.0mph /  20.9km/h 82% 0.00in /  0mm
21:45 60.0 °F /  15.6 °C 54.5 °F /  12.5 °C 29.96in /  1014.4hPa SSW 7.0mph /  11.3km/h 11.0mph /  17.7km/h 82% 0.00in /  0mm
21:50 59.9 °F /  15.5 °C 54.4 °F /  12.4 °C 29.96in /  1014.4hPa South 7.0mph /  11.3km/h 13.0mph /  20.9km/h 82% 0.00in /  0mm
21:55 59.9 °F /  15.5 °C 54.1 °F /  12.3 °C 29.96in /  1014.4hPa SSE 5.0mph /  8km/h 9.0mph /  14.5km/h 81% 0.00in /  0mm
22:00 59.9 °F /  15.5 °C 54.1 °F /  12.3 °C 29.96in /  1014.4hPa SSW 3.0mph /  4.8km/h 10.0mph /  16.1km/h 81% 0.00in /  0mm
22:05 60.0 °F /  15.6 °C 54.2 °F /  12.3 °C 29.96in /  1014.4hPa SSE 4.0mph /  6.4km/h 13.0mph /  20.9km/h 81% 0.00in /  0mm
22:10 59.9 °F /  15.5 °C 54.1 °F /  12.3 °C 29.95in /  1014.1hPa South 5.0mph /  8km/h 13.0mph /  20.9km/h 81% 0.00in /  0mm
22:15 60.0 °F /  15.6 °C 54.2 °F /  12.3 °C 29.96in /  1014.4hPa SSE 2.0mph /  3.2km/h 13.0mph /  20.9km/h 81% 0.00in /  0mm
22:20 60.0 °F /  15.6 °C 54.2 °F /  12.3 °C 29.96in /  1014.4hPa SSW 3.0mph /  4.8km/h 9.0mph /  14.5km/h 81% 0.00in /  0mm
22:25 60.0 °F /  15.6 °C 54.2 °F /  12.3 °C 29.96in /  1014.4hPa SSE 4.0mph /  6.4km/h 8.0mph /  12.9km/h 81% 0.00in /  0mm
22:30 60.0 °F /  15.6 °C 54.2 °F /  12.3 °C 29.96in /  1014.4hPa WSW 5.0mph /  8km/h 10.0mph /  16.1km/h 81% 0.00in /  0mm
22:35 60.1 °F /  15.6 °C 54.2 °F /  12.3 °C 29.96in /  1014.4hPa South 2.0mph /  3.2km/h 8.0mph /  12.9km/h 81% 0.00in /  0mm
22:40 60.2 °F /  15.7 °C 54.0 °F /  12.2 °C 29.95in /  1014.1hPa South 4.0mph /  6.4km/h 10.0mph /  16.1km/h 80% 0.00in /  0mm
22:45 60.2 °F /  15.7 °C 54.0 °F /  12.2 °C 29.95in /  1014.1hPa South 4.0mph /  6.4km/h 10.0mph /  16.1km/h 80% 0.00in /  0mm
22:50 60.3 °F /  15.7 °C 54.1 °F /  12.3 °C 29.95in /  1014.1hPa South 4.0mph /  6.4km/h 9.0mph /  14.5km/h 80% 0.00in /  0mm
22:55 60.4 °F /  15.8 °C 54.5 °F /  12.5 °C 29.95in /  1014.1hPa South 3.0mph /  4.8km/h 8.0mph /  12.9km/h 81% 0.00in /  0mm
23:00 60.5 °F /  15.8 °C 54.3 °F /  12.4 °C 29.95in /  1014.1hPa South 4.0mph /  6.4km/h 9.0mph /  14.5km/h 80% 0.00in /  0mm
23:05 60.5 °F /  15.8 °C 54.6 °F /  12.6 °C 29.95in /  1014.1hPa South 4.0mph /  6.4km/h 10.0mph /  16.1km/h 81% 0.00in /  0mm
23:10 60.7 °F /  15.9 °C 54.8 °F /  12.7 °C 29.95in /  1014.1hPa South 4.0mph /  6.4km/h 10.0mph /  16.1km/h 81% 0.00in /  0mm
23:20 60.7 °F /  15.9 °C 54.8 °F /  12.7 °C 29.94in /  1013.8hPa South 7.0mph /  11.3km/h 9.0mph /  14.5km/h 81% 0.00in /  0mm
23:25 60.8 °F /  16 °C 54.6 °F /  12.6 °C 29.94in /  1013.8hPa South 3.0mph /  4.8km/h 12.0mph /  19.3km/h 80% 0.00in /  0mm
23:30 60.9 °F /  16.1 °C 54.7 °F /  12.6 °C 29.94in /  1013.8hPa South 3.0mph /  4.8km/h 8.0mph /  12.9km/h 80% 0.00in /  0mm
23:35 60.9 °F /  16.1 °C 54.7 °F /  12.6 °C 29.94in /  1013.8hPa South 2.0mph /  3.2km/h 7.0mph /  11.3km/h 80% 0.00in /  0mm
23:40 61.0 °F /  16.1 °C 54.8 °F /  12.7 °C 29.94in /  1013.8hPa South 4.0mph /  6.4km/h 10.0mph /  16.1km/h 80% 0.00in /  0mm
23:45 61.0 °F /  16.1 °C 54.8 °F /  12.7 °C 29.94in /  1013.8hPa South 5.0mph /  8km/h 10.0mph /  16.1km/h 80% 0.00in /  0mm
23:50 61.0 °F /  16.1 °C 54.8 °F /  12.7 °C 29.94in /  1013.8hPa South 5.0mph /  8km/h 11.0mph /  17.7km/h 80% 0.00in /  0mm
23:55 60.8 °F /  16 °C 54.9 °F /  12.7 °C 29.94in /  1013.8hPa South 4.0mph /  6.4km/h 11.0mph /  17.7km/h 81% 0.00in /  0mm
Buffalo, New York, USA
Compliments of Weather Underground - 2.5 mb